Terminal Aerodrome Forecast
Issued by NWS Shreveport, LA

Home | Current Version | Previous Version | Text Only | Print | Product List | Glossary On
Versions: 1 2 3 4 5 6 7 8 9 10 11 12 13 14 15 16
000
FTUS44 KSHV 261720
TAFTXK
TAF
KTXK 261720Z 2618/2718 11006KT P6SM OVC050
     FM270100 10003KT P6SM SKC
     FM270600 16003KT P6SM FEW250
     FM271000 VRB03KT 5SM BR SCT050 BKN150
     FM271500 16004KT P6SM BKN030 OVC150=

USA.gov is the U.S. government's official web portal to all federal, state and local government web resources and services.